createdAt,value
2022-09-12T00:02:22.745Z,88.00
2022-09-12T00:04:51.025Z,88.93
2022-09-12T00:07:18.786Z,88.51
2022-09-12T00:09:46.430Z,89.06
2022-09-12T00:12:14.315Z,88.52
2022-09-12T00:14:42.117Z,89.10
2022-09-12T00:17:09.940Z,89.06
2022-09-12T00:19:37.710Z,89.63
2022-09-12T00:22:05.423Z,89.17
2022-09-12T00:24:34.357Z,88.52
2022-09-12T00:27:02.124Z,89.51
2022-09-12T00:29:30.068Z,88.86
2022-09-12T00:31:57.895Z,88.90
2022-09-12T00:34:25.880Z,89.29
2022-09-12T00:36:53.518Z,90.09
2022-09-12T00:39:21.145Z,89.59
2022-09-12T00:41:49.011Z,90.35
2022-09-12T00:44:17.013Z,91.68
2022-09-12T00:46:47.806Z,91.17
2022-09-12T00:49:27.649Z,90.53
2022-09-12T00:52:07.523Z,90.38
2022-09-12T00:54:43.240Z,90.47
2022-09-12T00:57:13.386Z,90.52
2022-09-12T00:59:48.951Z,90.84
2022-09-12T01:02:16.838Z,91.01
2022-09-12T01:04:45.280Z,91.31
2022-09-12T01:07:13.353Z,90.89
2022-09-12T01:09:42.337Z,90.88
2022-09-12T01:12:11.125Z,90.61
2022-09-12T01:14:39.707Z,91.07
2022-09-12T01:17:07.425Z,91.18
2022-09-12T01:19:46.381Z,90.65
2022-09-12T01:22:14.367Z,90.60
2022-09-12T01:24:51.724Z,91.03
2022-09-12T01:27:27.194Z,91.88
2022-09-12T01:30:13.498Z,90.78
2022-09-12T01:32:57.110Z,90.68
2022-09-12T01:35:28.993Z,90.78
2022-09-12T01:38:09.099Z,90.66
2022-09-12T01:40:36.660Z,90.24
2022-09-12T01:43:21.222Z,90.14
2022-09-12T01:46:14.922Z,89.95
2022-09-12T01:48:46.887Z,91.07
2022-09-12T01:51:26.695Z,90.93
2022-09-12T01:53:58.601Z,90.47
2022-09-12T01:56:28.808Z,91.64
2022-09-12T01:59:04.167Z,91.46
2022-09-12T02:01:34.054Z,91.54
2022-09-12T02:04:11.779Z,91.03
2022-09-12T02:06:58.167Z,91.08
2022-09-12T02:09:32.291Z,91.81
2022-09-12T02:12:01.594Z,92.39
2022-09-12T02:14:32.475Z,91.72
2022-09-12T02:17:02.626Z,91.63
2022-09-12T02:19:34.188Z,91.57
2022-09-12T02:22:02.989Z,91.75
2022-09-12T02:24:36.992Z,91.63
2022-09-12T02:27:24.980Z,91.60
2022-09-12T02:29:53.515Z,91.84
2022-09-12T02:32:38.286Z,91.52
2022-09-12T02:35:14.544Z,90.94
2022-09-12T02:37:54.183Z,90.52
2022-09-12T02:40:23.173Z,90.73
2022-09-12T02:42:51.135Z,90.09
2022-09-12T02:45:19.319Z,89.42
2022-09-12T02:47:53.434Z,89.20
2022-09-12T02:50:21.190Z,87.57
2022-09-12T02:52:49.267Z,87.48
2022-09-12T02:55:17.443Z,86.41
2022-09-12T02:57:45.206Z,85.03
2022-09-12T03:00:13.481Z,84.94
2022-09-12T03:02:41.449Z,85.43
2022-09-12T03:05:09.216Z,85.36
2022-09-12T03:07:39.658Z,85.31
2022-09-12T03:10:08.088Z,85.76
2022-09-12T03:12:57.288Z,85.61
2022-09-12T03:15:37.240Z,85.48
2022-09-12T03:18:06.433Z,85.41
2022-09-12T03:20:37.370Z,85.73
2022-09-12T03:23:17.626Z,85.78
2022-09-12T03:25:50.509Z,86.48
2022-09-12T03:28:20.218Z,86.43
2022-09-12T03:30:48.938Z,87.61
2022-09-12T03:33:21.297Z,88.43
2022-09-12T03:35:49.863Z,87.74
2022-09-12T03:38:18.238Z,87.92
2022-09-12T03:40:49.325Z,88.27
2022-09-12T03:43:19.534Z,88.32
2022-09-12T03:45:50.475Z,88.52
2022-09-12T03:48:18.508Z,88.71
2022-09-12T03:50:46.785Z,89.25
2022-09-12T03:53:17.272Z,89.52
2022-09-12T03:55:46.309Z,89.63
2022-09-12T03:58:14.069Z,89.57
2022-09-12T04:00:43.207Z,89.48
2022-09-12T04:03:10.930Z,89.23
2022-09-12T04:05:38.585Z,89.27
2022-09-12T04:08:06.562Z,89.03
2022-09-12T04:10:34.322Z,88.76
2022-09-12T04:13:02.191Z,88.62
2022-09-12T04:15:30.053Z,88.54
2022-09-12T04:18:00.424Z,88.31
2022-09-12T04:20:30.394Z,87.92
2022-09-12T04:22:58.293Z,87.12
2022-09-12T04:25:27.362Z,86.35
2022-09-12T04:27:55.123Z,86.29
2022-09-12T04:30:22.952Z,86.25
2022-09-12T04:32:50.751Z,86.38
2022-09-12T04:35:18.581Z,86.84
2022-09-12T04:37:46.368Z,86.61
2022-09-12T04:40:14.381Z,86.13
2022-09-12T04:42:42.216Z,86.06
2022-09-12T04:45:10.172Z,86.06
2022-09-12T04:47:38.049Z,85.98
2022-09-12T04:50:06.020Z,86.03
2022-09-12T04:52:33.784Z,86.22
2022-09-12T04:55:01.649Z,85.71
2022-09-12T04:57:29.433Z,85.01
2022-09-12T04:59:57.157Z,85.17
2022-09-12T05:02:25.014Z,85.26
2022-09-12T05:04:52.943Z,85.37
2022-09-12T05:07:21.286Z,85.08
2022-09-12T05:09:49.051Z,85.04
2022-09-12T05:12:19.037Z,85.24
2022-09-12T05:14:46.932Z,83.98
2022-09-12T05:17:15.208Z,83.44
2022-09-12T05:19:43.645Z,83.15
2022-09-12T05:22:12.353Z,82.94
2022-09-12T05:24:47.266Z,82.97
2022-09-12T05:27:17.808Z,83.40
2022-09-12T05:29:45.701Z,83.13
2022-09-12T05:32:13.511Z,82.66
2022-09-12T05:34:41.438Z,83.17
2022-09-12T05:37:10.277Z,82.62
2022-09-12T05:39:37.949Z,81.64
2022-09-12T05:42:06.246Z,82.01
2022-09-12T05:44:33.868Z,81.43
2022-09-12T05:47:01.520Z,81.70
2022-09-12T05:49:30.337Z,81.44
2022-09-12T05:51:57.955Z,81.57
2022-09-12T05:54:31.395Z,80.91
2022-09-12T05:57:00.141Z,80.60
2022-09-12T05:59:28.578Z,80.98
2022-09-12T06:01:56.324Z,80.72
2022-09-12T06:04:25.562Z,80.17
2022-09-12T06:06:53.632Z,80.34
2022-09-12T06:09:21.388Z,80.04
2022-09-12T06:11:49.179Z,79.72
2022-09-12T06:14:18.053Z,79.35
2022-09-12T06:16:47.520Z,78.77
2022-09-12T06:19:17.472Z,79.27
2022-09-12T06:21:46.363Z,78.66
2022-09-12T06:24:14.425Z,78.21
2022-09-12T06:26:43.840Z,77.92
2022-09-12T06:29:12.000Z,77.99
2022-09-12T06:31:41.607Z,78.11
2022-09-12T06:34:11.112Z,77.67
2022-09-12T06:36:43.174Z,77.75
2022-09-12T06:39:16.258Z,77.99
2022-09-12T06:41:44.632Z,77.34
2022-09-12T06:44:15.734Z,77.37
2022-09-12T06:46:44.392Z,77.48
2022-09-12T06:49:12.234Z,77.56
2022-09-12T06:51:42.158Z,75.64
2022-09-12T06:54:12.369Z,75.57
2022-09-12T06:56:40.631Z,75.65
2022-09-12T06:59:08.820Z,75.65
2022-09-12T07:01:36.783Z,74.67
2022-09-12T07:04:05.357Z,73.92
2022-09-12T07:06:38.858Z,70.52
2022-09-12T07:09:08.949Z,69.45
2022-09-12T07:11:38.286Z,70.17
2022-09-12T07:14:07.218Z,70.79
2022-09-12T07:16:35.778Z,70.08
2022-09-12T07:19:04.649Z,69.90
2022-09-12T07:21:32.826Z,69.82
2022-09-12T07:24:01.102Z,69.81
2022-09-12T07:26:29.580Z,70.37
2022-09-12T07:29:18.709Z,71.04
2022-09-12T07:31:47.019Z,69.32
2022-09-12T07:34:14.814Z,69.98
2022-09-12T07:36:42.752Z,69.32
2022-09-12T07:39:10.879Z,68.87
2022-09-12T07:41:38.895Z,68.51
2022-09-12T07:44:07.381Z,68.92
2022-09-12T07:46:35.482Z,69.30
2022-09-12T07:49:03.624Z,69.26
2022-09-12T07:51:31.896Z,68.82
2022-09-12T07:53:59.655Z,68.34
2022-09-12T07:56:32.024Z,67.63
2022-09-12T07:59:01.644Z,67.73
2022-09-12T08:01:29.948Z,66.49
2022-09-12T08:03:58.646Z,65.02
2022-09-12T08:06:27.718Z,63.88
2022-09-12T08:08:56.409Z,64.04
2022-09-12T08:11:25.479Z,64.45
2022-09-12T08:13:55.583Z,64.30
2022-09-12T08:16:25.610Z,64.27
2022-09-12T08:18:53.462Z,64.21
2022-09-12T08:21:25.444Z,64.36
2022-09-12T08:23:54.436Z,64.02
2022-09-12T08:26:22.809Z,63.19
2022-09-12T08:28:51.190Z,63.64
2022-09-12T08:31:20.385Z,62.16
2022-09-12T08:33:48.489Z,61.22
2022-09-12T08:36:18.204Z,62.24
2022-09-12T08:38:46.690Z,62.00
2022-09-12T08:41:20.458Z,61.60
2022-09-12T08:44:07.363Z,61.65
2022-09-12T08:46:38.302Z,60.87
2022-09-12T08:49:09.344Z,61.43
2022-09-12T08:51:38.122Z,62.37
2022-09-12T08:54:14.697Z,62.44
2022-09-12T08:56:43.197Z,61.89
2022-09-12T08:59:11.045Z,62.17
2022-09-12T09:01:42.074Z,63.04
2022-09-12T09:04:10.157Z,62.32
2022-09-12T09:06:52.683Z,61.81
2022-09-12T09:09:29.527Z,61.66
2022-09-12T09:11:57.311Z,61.59
2022-09-12T09:14:49.552Z,60.72
2022-09-12T09:17:20.356Z,60.38
2022-09-12T09:19:54.288Z,60.24
2022-09-12T09:22:41.101Z,60.81
2022-09-12T09:25:32.080Z,60.83
2022-09-12T09:28:07.295Z,59.53
2022-09-12T09:30:36.176Z,59.81
2022-09-12T09:33:06.588Z,60.10
2022-09-12T09:35:44.973Z,59.95
2022-09-12T09:38:31.282Z,60.38
2022-09-12T09:41:11.224Z,59.83
2022-09-12T09:43:39.191Z,60.16
2022-09-12T09:46:07.207Z,59.85
2022-09-12T09:48:37.484Z,60.14
2022-09-12T09:51:07.295Z,60.40
2022-09-12T09:53:42.477Z,60.06
2022-09-12T09:56:13.681Z,59.98
2022-09-12T09:58:41.627Z,60.14
2022-09-12T10:01:14.368Z,59.60
2022-09-12T10:03:48.128Z,59.45
2022-09-12T10:06:23.433Z,59.36
2022-09-12T10:08:51.929Z,59.12
2022-09-12T10:11:22.364Z,59.06
2022-09-12T10:13:57.630Z,59.09
2022-09-12T10:16:28.050Z,58.53
2022-09-12T10:18:57.143Z,58.47
2022-09-12T10:21:30.493Z,58.16
2022-09-12T10:24:01.174Z,57.77
2022-09-12T10:26:33.072Z,58.04
2022-09-12T10:29:04.795Z,58.90
2022-09-12T10:31:43.219Z,58.33
2022-09-12T10:34:21.917Z,58.60
2022-09-12T10:36:52.665Z,58.46
2022-09-12T10:39:21.029Z,57.79
2022-09-12T10:41:48.998Z,57.03
2022-09-12T10:44:35.278Z,56.77
2022-09-12T10:47:21.713Z,57.55
2022-09-12T10:49:51.080Z,57.41
2022-09-12T10:52:25.482Z,56.45
2022-09-12T10:54:54.008Z,56.07
2022-09-12T10:57:36.307Z,55.51
2022-09-12T11:00:16.956Z,54.96
2022-09-12T11:02:46.403Z,54.79
2022-09-12T11:05:36.868Z,54.92
2022-09-12T11:08:10.571Z,54.32
2022-09-12T11:11:01.171Z,53.86
2022-09-12T11:13:47.322Z,54.26
2022-09-12T11:16:23.205Z,53.47
2022-09-12T11:19:04.213Z,53.62
2022-09-12T11:21:45.236Z,53.76
2022-09-12T11:24:32.084Z,53.57
2022-09-12T11:27:10.092Z,53.18
2022-09-12T11:29:57.002Z,52.76
2022-09-12T11:32:41.868Z,52.19
2022-09-12T11:35:17.540Z,51.46
2022-09-12T11:37:54.596Z,51.71
2022-09-12T11:40:48.666Z,51.23
2022-09-12T11:43:23.866Z,51.52
2022-09-12T11:45:52.846Z,51.03
2022-09-12T11:48:26.700Z,51.59
2022-09-12T11:50:54.934Z,51.90
2022-09-12T11:53:34.211Z,51.66
2022-09-12T11:56:09.580Z,52.07
2022-09-12T11:58:39.880Z,51.80
2022-09-12T12:01:41.401Z,50.72
2022-09-12T12:04:16.543Z,50.72
2022-09-12T12:06:50.483Z,50.49
2022-09-12T12:09:18.493Z,51.00
2022-09-12T12:11:50.624Z,51.27
2022-09-12T12:14:24.143Z,51.23
2022-09-12T12:16:52.503Z,50.26
2022-09-12T12:19:34.358Z,49.13
2022-09-12T12:22:07.121Z,49.09
2022-09-12T12:24:35.367Z,48.57
2022-09-12T12:27:23.081Z,49.54
2022-09-12T12:29:51.261Z,49.77
2022-09-12T12:32:20.351Z,50.04
2022-09-12T12:34:48.417Z,50.02
2022-09-12T12:37:25.605Z,49.25
2022-09-12T12:40:03.560Z,49.16
2022-09-12T12:42:35.196Z,49.19
2022-09-12T12:45:04.476Z,49.82
2022-09-12T12:47:34.374Z,49.85
2022-09-12T12:50:08.252Z,49.97
2022-09-12T12:52:47.899Z,50.11
2022-09-12T12:55:19.940Z,50.45
2022-09-12T12:57:52.064Z,50.91
2022-09-12T13:00:26.030Z,50.36
2022-09-12T13:02:59.970Z,50.47
2022-09-12T13:05:29.677Z,50.44
2022-09-12T13:08:17.742Z,49.64
2022-09-12T13:10:51.382Z,49.53
2022-09-12T13:13:25.044Z,49.01
2022-09-12T13:15:53.141Z,49.51
2022-09-12T13:18:27.833Z,50.24
2022-09-12T13:21:01.417Z,49.29
2022-09-12T13:23:30.617Z,49.30
2022-09-12T13:26:00.622Z,48.55
2022-09-12T13:28:30.036Z,48.54
2022-09-12T13:31:01.117Z,47.98
2022-09-12T13:33:37.552Z,48.87
2022-09-12T13:36:05.614Z,49.83
2022-09-12T13:38:39.316Z,50.08
2022-09-12T13:41:31.053Z,49.22
2022-09-12T13:43:59.480Z,48.33
2022-09-12T13:46:30.422Z,48.58
2022-09-12T13:49:01.743Z,48.25
2022-09-12T13:51:30.819Z,48.15
2022-09-12T13:54:01.944Z,48.16
2022-09-12T13:56:30.325Z,48.31
2022-09-12T13:58:59.137Z,48.47
2022-09-12T14:01:40.341Z,47.79
2022-09-12T14:04:45.458Z,48.05
2022-09-12T14:07:13.304Z,48.43
2022-09-12T14:09:42.832Z,48.03
2022-09-12T14:12:30.350Z,47.46
2022-09-12T14:14:58.535Z,48.29
2022-09-12T14:17:33.497Z,48.44
2022-09-12T14:20:04.008Z,48.03
2022-09-12T14:22:32.739Z,48.10
2022-09-12T14:25:01.125Z,48.17
2022-09-12T14:27:31.819Z,48.42
2022-09-12T14:30:06.858Z,48.32
2022-09-12T14:32:35.565Z,49.00
2022-09-12T14:35:06.397Z,49.71
2022-09-12T14:37:34.123Z,49.85
2022-09-12T14:40:02.778Z,50.16
2022-09-12T14:42:31.691Z,50.45
2022-09-12T14:45:01.872Z,50.78
2022-09-12T14:47:35.268Z,49.65
2022-09-12T14:50:03.017Z,49.11
2022-09-12T14:52:33.248Z,49.06
2022-09-12T14:55:02.740Z,49.69
2022-09-12T14:57:33.596Z,50.96
2022-09-12T15:00:13.237Z,51.26
2022-09-12T15:02:41.797Z,52.02
2022-09-12T15:05:10.799Z,52.39
2022-09-12T15:07:47.665Z,52.52
2022-09-12T15:10:25.351Z,52.91
2022-09-12T15:13:12.176Z,53.22
2022-09-12T15:15:41.461Z,53.09
2022-09-12T15:18:09.737Z,53.60
2022-09-12T15:20:38.987Z,53.98
2022-09-12T15:23:10.979Z,53.77
2022-09-12T15:25:38.720Z,54.64
2022-09-12T15:28:13.894Z,54.16
2022-09-12T15:30:41.656Z,53.70
2022-09-12T15:33:10.900Z,53.74
2022-09-12T15:35:39.360Z,54.22
2022-09-12T15:38:07.196Z,54.26
2022-09-12T15:40:35.007Z,54.31
2022-09-12T15:43:03.389Z,54.66
2022-09-12T15:45:32.376Z,54.74
2022-09-12T15:48:01.023Z,54.79
2022-09-12T15:50:29.130Z,55.44
2022-09-12T15:52:56.804Z,55.51
2022-09-12T15:55:27.818Z,55.98
2022-09-12T15:57:55.888Z,55.80
2022-09-12T16:00:24.001Z,56.13
2022-09-12T16:02:53.085Z,56.39
2022-09-12T16:05:24.007Z,56.15
2022-09-12T16:07:53.602Z,56.03
2022-09-12T16:10:22.774Z,56.06
2022-09-12T16:12:51.494Z,56.39
2022-09-12T16:15:20.564Z,55.95
2022-09-12T16:17:48.560Z,56.51
2022-09-12T16:20:17.038Z,57.13
2022-09-12T16:22:45.381Z,57.13
2022-09-12T16:25:13.450Z,57.36
2022-09-12T16:27:41.951Z,57.43
2022-09-12T16:30:10.518Z,57.36
2022-09-12T16:32:38.423Z,58.03
2022-09-12T16:35:06.519Z,57.93
2022-09-12T16:37:34.697Z,57.79
2022-09-12T16:40:03.987Z,57.93
2022-09-12T16:42:31.931Z,57.72
2022-09-12T16:44:59.684Z,57.82
2022-09-12T16:47:27.626Z,58.22
2022-09-12T16:49:55.324Z,58.42
2022-09-12T16:52:23.040Z,58.73
2022-09-12T16:54:50.750Z,59.37
2022-09-12T16:57:18.513Z,59.94
2022-09-12T16:59:53.745Z,60.73
2022-09-12T17:02:21.691Z,61.59
2022-09-12T17:04:49.435Z,62.41
2022-09-12T17:07:17.141Z,62.86
2022-09-12T17:09:47.869Z,63.47
2022-09-12T17:12:15.972Z,64.11
2022-09-12T17:14:43.647Z,64.08
2022-09-12T17:17:11.866Z,64.61
2022-09-12T17:19:42.057Z,65.34
2022-09-12T17:22:09.928Z,65.64
2022-09-12T17:24:38.153Z,65.61
2022-09-12T17:27:06.389Z,65.99
2022-09-12T17:29:37.133Z,66.18
2022-09-12T17:32:05.231Z,66.83
2022-09-12T17:34:33.024Z,67.00
2022-09-12T17:37:00.962Z,67.45
2022-09-12T17:39:30.283Z,67.12
2022-09-12T17:41:59.035Z,68.03
2022-09-12T17:44:29.776Z,67.87
2022-09-12T17:47:00.414Z,67.65
2022-09-12T17:49:28.280Z,68.15
2022-09-12T17:51:56.231Z,68.55
2022-09-12T17:54:24.528Z,68.84
2022-09-12T17:56:52.560Z,68.91
2022-09-12T17:59:24.075Z,69.18
2022-09-12T18:02:10.154Z,69.81
2022-09-12T18:04:38.213Z,70.37
2022-09-12T18:07:07.104Z,70.58
2022-09-12T18:09:36.270Z,70.56
2022-09-12T18:12:04.399Z,70.33
2022-09-12T18:14:32.213Z,70.11
2022-09-12T18:17:00.418Z,72.09
2022-09-12T18:19:28.240Z,70.97
2022-09-12T18:21:56.270Z,71.14
2022-09-12T18:24:24.646Z,70.74
2022-09-12T18:26:52.529Z,67.81
2022-09-12T18:29:20.763Z,66.08
2022-09-12T18:31:49.642Z,65.50
2022-09-12T18:34:17.623Z,64.76
2022-09-12T18:36:47.571Z,64.91
2022-09-12T18:39:15.994Z,64.98
2022-09-12T18:41:43.939Z,64.58
2022-09-12T18:44:12.334Z,63.47
2022-09-12T18:46:40.236Z,62.76
2022-09-12T18:49:09.406Z,62.12
2022-09-12T18:51:40.051Z,61.49
2022-09-12T18:54:12.189Z,60.39
2022-09-12T18:56:45.171Z,58.71
2022-09-12T18:59:14.393Z,58.19
2022-09-12T19:01:43.880Z,58.11
2022-09-12T19:04:12.671Z,58.07
2022-09-12T19:06:42.642Z,58.30
2022-09-12T19:09:10.975Z,58.68
2022-09-12T19:11:40.039Z,58.34
2022-09-12T19:14:08.287Z,58.15
2022-09-12T19:16:36.744Z,58.35
2022-09-12T19:19:04.916Z,58.31
2022-09-12T19:21:34.408Z,58.49
2022-09-12T19:24:04.441Z,58.91
2022-09-12T19:26:33.135Z,59.02
2022-09-12T19:29:02.984Z,59.51
2022-09-12T19:31:31.896Z,59.49
2022-09-12T19:34:01.414Z,60.28
2022-09-12T19:36:46.196Z,60.42
2022-09-12T19:39:15.234Z,60.63
2022-09-12T19:41:43.250Z,60.84
2022-09-12T19:44:11.684Z,60.87
2022-09-12T19:46:39.470Z,61.02
2022-09-12T19:49:07.167Z,60.65
2022-09-12T19:51:34.825Z,60.75
2022-09-12T19:54:03.080Z,61.27
2022-09-12T19:56:31.205Z,61.61
2022-09-12T19:58:58.971Z,61.39
2022-09-12T20:01:28.640Z,60.74
2022-09-12T20:03:57.561Z,61.03
2022-09-12T20:06:25.952Z,61.40
2022-09-12T20:08:54.392Z,61.47
2022-09-12T20:11:23.659Z,61.69
2022-09-12T20:13:52.351Z,61.79
2022-09-12T20:16:22.158Z,61.81
2022-09-12T20:18:58.236Z,62.12
2022-09-12T20:21:31.725Z,62.10
2022-09-12T20:24:20.004Z,61.91
2022-09-12T20:26:47.960Z,62.00
2022-09-12T20:29:15.707Z,62.08
2022-09-12T20:31:43.947Z,62.18
2022-09-12T20:34:16.515Z,62.57
2022-09-12T20:36:44.439Z,62.56
2022-09-12T20:39:13.523Z,62.40
2022-09-12T20:41:42.110Z,62.63
2022-09-12T20:44:10.193Z,62.94
2022-09-12T20:46:38.002Z,63.12
2022-09-12T20:49:08.259Z,62.96
2022-09-12T20:51:36.122Z,62.89
2022-09-12T20:54:26.946Z,63.30
2022-09-12T20:56:54.581Z,63.14
2022-09-12T20:59:22.373Z,63.32
2022-09-12T21:01:50.146Z,63.16
2022-09-12T21:04:18.723Z,63.61
2022-09-12T21:06:46.795Z,63.36
2022-09-12T21:09:17.398Z,63.71
2022-09-12T21:11:45.196Z,63.50
2022-09-12T21:14:13.359Z,63.56
2022-09-12T21:16:41.223Z,63.38
2022-09-12T21:19:09.090Z,63.23
2022-09-12T21:21:36.916Z,63.35
2022-09-12T21:24:05.239Z,63.52
2022-09-12T21:26:32.973Z,63.70
2022-09-12T21:29:00.715Z,62.99
2022-09-12T21:31:28.525Z,63.35
2022-09-12T21:33:56.389Z,63.44
2022-09-12T21:36:24.569Z,63.34
2022-09-12T21:38:52.712Z,63.18
2022-09-12T21:41:20.605Z,63.18
2022-09-12T21:43:48.461Z,63.12
2022-09-12T21:46:16.395Z,63.02
2022-09-12T21:48:44.348Z,63.53
2022-09-12T21:51:12.187Z,63.70
2022-09-12T21:53:40.472Z,63.54
2022-09-12T21:56:08.926Z,63.62
2022-09-12T21:58:37.405Z,63.44
2022-09-12T22:01:06.083Z,63.89
2022-09-12T22:03:34.129Z,63.91
2022-09-12T22:06:03.814Z,64.01
2022-09-12T22:08:32.885Z,64.14
2022-09-12T22:11:02.175Z,63.99
2022-09-12T22:13:33.796Z,64.26
2022-09-12T22:16:03.111Z,64.56
2022-09-12T22:18:35.015Z,64.90
2022-09-12T22:21:04.587Z,64.81
2022-09-12T22:23:51.089Z,64.52
2022-09-12T22:26:18.857Z,64.44
2022-09-12T22:28:47.701Z,64.69
2022-09-12T22:31:16.654Z,64.54
2022-09-12T22:33:45.667Z,64.44
2022-09-12T22:36:13.803Z,64.42
2022-09-12T22:38:41.973Z,64.27
2022-09-12T22:41:11.493Z,64.35
2022-09-12T22:43:39.262Z,64.71
2022-09-12T22:46:08.276Z,64.86
2022-09-12T22:48:37.400Z,65.32
2022-09-12T22:51:05.712Z,65.06
2022-09-12T22:53:34.348Z,65.07
2022-09-12T22:56:02.827Z,65.20
2022-09-12T22:58:32.172Z,66.00
2022-09-12T23:01:00.047Z,65.75
2022-09-12T23:03:28.027Z,65.65
2022-09-12T23:05:55.856Z,65.84
2022-09-12T23:08:23.692Z,66.30
2022-09-12T23:10:51.809Z,66.24
2022-09-12T23:13:19.665Z,67.22
2022-09-12T23:15:47.478Z,67.45
2022-09-12T23:18:15.409Z,67.36
2022-09-12T23:20:43.175Z,67.32
2022-09-12T23:23:10.942Z,67.80
2022-09-12T23:25:38.671Z,68.36
2022-09-12T23:28:06.466Z,68.39
2022-09-12T23:30:34.330Z,68.98
2022-09-12T23:33:02.510Z,69.50
2022-09-12T23:35:30.273Z,69.45
2022-09-12T23:37:58.224Z,69.60
2022-09-12T23:40:25.874Z,69.71
2022-09-12T23:42:53.871Z,70.05
2022-09-12T23:45:21.733Z,71.08
2022-09-12T23:47:49.386Z,70.18
2022-09-12T23:50:17.158Z,70.86
2022-09-12T23:52:45.537Z,72.56
2022-09-12T23:55:13.568Z,72.29
2022-09-12T23:57:41.325Z,72.55
